sensor_id;sensor_type;location;lat;lon;timestamp;pressure;altitude;pressure_sealevel;temperature;humidity
27705;BME280;15109;50.992;6.918;2022-10-23T00:03:01;100889.47;;;13.08;100.00
27705;BME280;15109;50.992;6.918;2022-10-23T00:06:22;100877.47;;;13.09;100.00
27705;BME280;15109;50.992;6.918;2022-10-23T00:09:43;100874.34;;;13.12;100.00
27705;BME280;15109;50.992;6.918;2022-10-23T00:13:04;100875.41;;;13.11;100.00
27705;BME280;15109;50.992;6.918;2022-10-23T00:16:29;100870.25;;;13.08;100.00
27705;BME280;15109;50.992;6.918;2022-10-23T00:19:50;100882.50;;;13.05;100.00
27705;BME280;15109;50.992;6.918;2022-10-23T00:23:11;100869.81;;;13.04;100.00
27705;BME280;15109;50.992;6.918;2022-10-23T00:26:32;100878.91;;;13.05;100.00
27705;BME280;15109;50.992;6.918;2022-10-23T00:29:55;100879.94;;;13.04;100.00
27705;BME280;15109;50.992;6.918;2022-10-23T00:33:16;100877.78;;;12.99;100.00
27705;BME280;15109;50.992;6.918;2022-10-23T00:36:38;100889.19;;;12.96;100.00
27705;BME280;15109;50.992;6.918;2022-10-23T00:39:59;100886.84;;;12.93;100.00
27705;BME280;15109;50.992;6.918;2022-10-23T00:43:24;100884.28;;;12.92;100.00
27705;BME280;15109;50.992;6.918;2022-10-23T00:46:46;100874.81;;;12.94;100.00
27705;BME280;15109;50.992;6.918;2022-10-23T00:50:07;100864.66;;;12.95;100.00
27705;BME280;15109;50.992;6.918;2022-10-23T00:53:28;100854.16;;;12.98;100.00
27705;BME280;15109;50.992;6.918;2022-10-23T00:56:50;100846.75;;;12.99;100.00
27705;BME280;15109;50.992;6.918;2022-10-23T01:00:19;100858.81;;;12.98;100.00
27705;BME280;15109;50.992;6.918;2022-10-23T01:03:41;100858.59;;;12.99;100.00
27705;BME280;15109;50.992;6.918;2022-10-23T01:10:46;100854.16;;;12.98;100.00
27705;BME280;15109;50.992;6.918;2022-10-23T01:14:16;100858.59;;;12.99;100.00
27705;BME280;15109;50.992;6.918;2022-10-23T01:21:28;100856.31;;;13.03;100.00
27705;BME280;15109;50.992;6.918;2022-10-23T01:25:00;100849.13;;;13.02;100.00
27705;BME280;15109;50.992;6.918;2022-10-23T01:28:47;100850.75;;;12.96;100.00
27705;BME280;15109;50.992;6.918;2022-10-23T01:32:16;100846.31;;;12.95;100.00
27705;BME280;15109;50.992;6.918;2022-10-23T01:35:55;100845.00;;;12.91;100.00
27705;BME280;15109;50.992;6.918;2022-10-23T01:39:23;100841.81;;;12.88;100.00
27705;BME280;15109;50.992;6.918;2022-10-23T01:42:52;100835.47;;;12.87;100.00
27705;BME280;15109;50.992;6.918;2022-10-23T01:46:21;100822.78;;;12.86;100.00
27705;BME280;15109;50.992;6.918;2022-10-23T01:49:44;100826.38;;;12.87;100.00
27705;BME280;15109;50.992;6.918;2022-10-23T01:53:07;100832.91;;;12.86;100.00
27705;BME280;15109;50.992;6.918;2022-10-23T01:56:32;100824.91;;;12.84;100.00
27705;BME280;15109;50.992;6.918;2022-10-23T02:00:00;100822.16;;;12.84;100.00
27705;BME280;15109;50.992;6.918;2022-10-23T02:03:26;100808.63;;;12.83;100.00
27705;BME280;15109;50.992;6.918;2022-10-23T02:06:48;100812.41;;;12.82;100.00
27705;BME280;15109;50.992;6.918;2022-10-23T02:10:10;100804.69;;;12.92;100.00
27705;BME280;15109;50.992;6.918;2022-10-23T02:17:20;100790.56;;;12.95;100.00
27705;BME280;15109;50.992;6.918;2022-10-23T02:20:53;100787.63;;;12.96;100.00
27705;BME280;15109;50.992;6.918;2022-10-23T02:24:19;100789.97;;;12.99;100.00
27705;BME280;15109;50.992;6.918;2022-10-23T02:27:46;100791.06;;;13.05;100.00
27705;BME280;15109;50.992;6.918;2022-10-23T02:31:13;100787.91;;;13.08;100.00
27705;BME280;15109;50.992;6.918;2022-10-23T02:34:36;100783.78;;;13.18;100.00
27705;BME280;15109;50.992;6.918;2022-10-23T02:37:59;100769.22;;;13.18;100.00
27705;BME280;15109;50.992;6.918;2022-10-23T02:48:32;100748.78;;;13.27;100.00
27705;BME280;15109;50.992;6.918;2022-10-23T02:55:53;100747.75;;;13.28;100.00
27705;BME280;15109;50.992;6.918;2022-10-23T02:59:36;100747.75;;;13.28;100.00
27705;BME280;15109;50.992;6.918;2022-10-23T03:03:10;100746.28;;;13.32;100.00
27705;BME280;15109;50.992;6.918;2022-10-23T03:06:36;100739.50;;;13.35;100.00
27705;BME280;15109;50.992;6.918;2022-10-23T03:09:57;100735.53;;;13.37;100.00
27705;BME280;15109;50.992;6.918;2022-10-23T03:13:18;100732.13;;;13.35;100.00
27705;BME280;15109;50.992;6.918;2022-10-23T03:16:40;100721.16;;;13.42;100.00
27705;BME280;15109;50.992;6.918;2022-10-23T03:20:04;100696.03;;;13.45;100.00
27705;BME280;15109;50.992;6.918;2022-10-23T03:23:26;100692.25;;;13.46;100.00
27705;BME280;15109;50.992;6.918;2022-10-23T03:26:47;100689.69;;;13.44;100.00
27705;BME280;15109;50.992;6.918;2022-10-23T03:30:08;100688.00;;;13.43;100.00
27705;BME280;15109;50.992;6.918;2022-10-23T03:33:32;100686.75;;;13.46;100.00
27705;BME280;15109;50.992;6.918;2022-10-23T03:37:01;100699.03;;;13.50;100.00
27705;BME280;15109;50.992;6.918;2022-10-23T03:40:22;100693.91;;;13.47;100.00
27705;BME280;15109;50.992;6.918;2022-10-23T03:43:44;100687.56;;;13.46;100.00
27705;BME280;15109;50.992;6.918;2022-10-23T03:47:05;100703.25;;;13.46;100.00
27705;BME280;15109;50.992;6.918;2022-10-23T03:50:26;100709.56;;;13.46;100.00
27705;BME280;15109;50.992;6.918;2022-10-23T03:53:48;100705.75;;;13.47;100.00
27705;BME280;15109;50.992;6.918;2022-10-23T03:57:10;100715.50;;;13.50;100.00
27705;BME280;15109;50.992;6.918;2022-10-23T04:00:34;100713.81;;;13.49;100.00
27705;BME280;15109;50.992;6.918;2022-10-23T04:03:55;100706.41;;;13.49;100.00
27705;BME280;15109;50.992;6.918;2022-10-23T04:07:19;100691.81;;;13.49;100.00
27705;BME280;15109;50.992;6.918;2022-10-23T04:10:42;100686.75;;;13.46;100.00
27705;BME280;15109;50.992;6.918;2022-10-23T04:14:03;100700.50;;;13.46;100.00
27705;BME280;15109;50.992;6.918;2022-10-23T04:17:24;100696.91;;;13.52;100.00
27705;BME280;15109;50.992;6.918;2022-10-23T04:20:49;100697.56;;;13.54;100.00
27705;BME280;15109;50.992;6.918;2022-10-23T04:24:10;100682.31;;;13.51;100.00
27705;BME280;15109;50.992;6.918;2022-10-23T04:27:31;100685.09;;;13.58;100.00
27705;BME280;15109;50.992;6.918;2022-10-23T04:30:55;100694.19;;;13.58;100.00
27705;BME280;15109;50.992;6.918;2022-10-23T04:34:17;100679.38;;;13.59;100.00
27705;BME280;15109;50.992;6.918;2022-10-23T04:37:39;100682.53;;;13.56;100.00
27705;BME280;15109;50.992;6.918;2022-10-23T04:41:00;100678.75;;;13.57;100.00
27705;BME280;15109;50.992;6.918;2022-10-23T04:44:23;100670.94;;;13.54;100.00
27705;BME280;15109;50.992;6.918;2022-10-23T04:47:44;100655.72;;;13.58;100.00
27705;BME280;15109;50.992;6.918;2022-10-23T04:51:06;100656.16;;;13.62;100.00
27705;BME280;15109;50.992;6.918;2022-10-23T04:54:46;100654.25;;;13.62;100.00
27705;BME280;15109;50.992;6.918;2022-10-23T04:58:17;100648.34;;;13.59;100.00
27705;BME280;15109;50.992;6.918;2022-10-23T05:01:38;100652.75;;;13.60;100.00
27705;BME280;15109;50.992;6.918;2022-10-23T05:05:01;100646.84;;;13.56;100.00
27705;BME280;15109;50.992;6.918;2022-10-23T05:08:45;100647.44;;;13.52;100.00
27705;BME280;15109;50.992;6.918;2022-10-23T05:12:28;100642.38;;;13.49;100.00
27705;BME280;15109;50.992;6.918;2022-10-23T05:15:52;100651.66;;;13.48;100.00
27705;BME280;15109;50.992;6.918;2022-10-23T05:19:18;100654.84;;;13.45;100.00
27705;BME280;15109;50.992;6.918;2022-10-23T05:22:41;100637.09;;;13.41;100.00
27705;BME280;15109;50.992;6.918;2022-10-23T05:26:05;100618.91;;;13.40;100.00
27705;BME280;15109;50.992;6.918;2022-10-23T05:29:27;100613.22;;;13.41;100.00
27705;BME280;15109;50.992;6.918;2022-10-23T05:32:49;100627.16;;;13.40;100.00
27705;BME280;15109;50.992;6.918;2022-10-23T05:36:14;100627.34;;;13.38;100.00
27705;BME280;15109;50.992;6.918;2022-10-23T05:39:38;100613.84;;;13.37;100.00
27705;BME280;15109;50.992;6.918;2022-10-23T05:43:04;100619.72;;;13.34;100.00
27705;BME280;15109;50.992;6.918;2022-10-23T05:46:46;100614.22;;;13.34;100.00
27705;BME280;15109;50.992;6.918;2022-10-23T05:50:39;100608.72;;;13.34;100.00
27705;BME280;15109;50.992;6.918;2022-10-23T05:54:13;100606.22;;;13.32;100.00
27705;BME280;15109;50.992;6.918;2022-10-23T05:57:57;100596.09;;;13.33;100.00
27705;BME280;15109;50.992;6.918;2022-10-23T06:01:37;100594.63;;;13.37;100.00
27705;BME280;15109;50.992;6.918;2022-10-23T06:05:01;100585.53;;;13.36;100.00
27705;BME280;15109;50.992;6.918;2022-10-23T06:08:37;100573.25;;;13.32;100.00
27705;BME280;15109;50.992;6.918;2022-10-23T06:12:00;100575.59;;;13.29;100.00
27705;BME280;15109;50.992;6.918;2022-10-23T06:15:21;100573.47;;;13.31;100.00
27705;BME280;15109;50.992;6.918;2022-10-23T06:18:51;100581.72;;;13.37;100.00
27705;BME280;15109;50.992;6.918;2022-10-23T06:22:12;100581.94;;;13.42;100.00
27705;BME280;15109;50.992;6.918;2022-10-23T06:25:54;100576.66;;;13.41;100.00
27705;BME280;15109;50.992;6.918;2022-10-23T06:29:24;100573.91;;;13.41;100.00
27705;BME280;15109;50.992;6.918;2022-10-23T06:32:45;100573.50;;;13.44;100.00
27705;BME280;15109;50.992;6.918;2022-10-23T06:36:07;100572.00;;;13.48;100.00
27705;BME280;15109;50.992;6.918;2022-10-23T06:39:31;100572.25;;;13.53;100.00
27705;BME280;15109;50.992;6.918;2022-10-23T06:43:06;100577.94;;;13.58;100.00
27705;BME280;15109;50.992;6.918;2022-10-23T06:46:28;100569.69;;;13.64;100.00
27705;BME280;15109;50.992;6.918;2022-10-23T06:50:31;100558.50;;;13.73;100.00
27705;BME280;15109;50.992;6.918;2022-10-23T06:53:55;100565.91;;;13.79;100.00
27705;BME280;15109;50.992;6.918;2022-10-23T06:57:58;100570.34;;;13.86;100.00
27705;BME280;15109;50.992;6.918;2022-10-23T07:01:19;100564.22;;;13.91;100.00
27705;BME280;15109;50.992;6.918;2022-10-23T07:04:40;100570.34;;;13.93;100.00
27705;BME280;15109;50.992;6.918;2022-10-23T07:08:07;100568.03;;;13.96;100.00
27705;BME280;15109;50.992;6.918;2022-10-23T07:11:35;100566.94;;;14.04;100.00
27705;BME280;15109;50.992;6.918;2022-10-23T07:14:57;100552.34;;;14.03;100.00
27705;BME280;15109;50.992;6.918;2022-10-23T07:18:18;100569.50;;;14.05;100.00
27705;BME280;15109;50.992;6.918;2022-10-23T07:21:57;100560.38;;;14.12;100.00
27705;BME280;15109;50.992;6.918;2022-10-23T07:25:37;100563.34;;;14.17;100.00
27705;BME280;15109;50.992;6.918;2022-10-23T07:28:59;100569.03;;;14.22;100.00
27705;BME280;15109;50.992;6.918;2022-10-23T07:32:21;100567.97;;;14.29;100.00
27705;BME280;15109;50.992;6.918;2022-10-23T07:35:56;100563.72;;;14.33;100.00
27705;BME280;15109;50.992;6.918;2022-10-23T07:39:21;100563.34;;;14.36;100.00
27705;BME280;15109;50.992;6.918;2022-10-23T07:42:46;100560.56;;;14.43;100.00
27705;BME280;15109;50.992;6.918;2022-10-23T07:46:08;100560.38;;;14.44;100.00
27705;BME280;15109;50.992;6.918;2022-10-23T07:49:32;100553.97;;;14.50;100.00
27705;BME280;15109;50.992;6.918;2022-10-23T07:52:54;100546.78;;;14.56;100.00
27705;BME280;15109;50.992;6.918;2022-10-23T07:56:26;100546.13;;;14.61;100.00
27705;BME280;15109;50.992;6.918;2022-10-23T08:00:20;100541.44;;;14.68;100.00
27705;BME280;15109;50.992;6.918;2022-10-23T08:03:50;100549.69;;;14.74;100.00
27705;BME280;15109;50.992;6.918;2022-10-23T08:07:12;100547.53;;;14.83;100.00
27705;BME280;15109;50.992;6.918;2022-10-23T08:10:36;100543.22;;;14.93;100.00
27705;BME280;15109;50.992;6.918;2022-10-23T08:14:01;100546.34;;;15.04;100.00
27705;BME280;15109;50.992;6.918;2022-10-23T08:17:24;100543.59;;;15.04;100.00
27705;BME280;15109;50.992;6.918;2022-10-23T08:21:01;100541.91;;;15.03;100.00
27705;BME280;15109;50.992;6.918;2022-10-23T08:24:22;100556.91;;;15.13;100.00
27705;BME280;15109;50.992;6.918;2022-10-23T08:27:44;100555.78;;;15.21;100.00
27705;BME280;15109;50.992;6.918;2022-10-23T08:31:10;100543.91;;;15.27;100.00
27705;BME280;15109;50.992;6.918;2022-10-23T08:34:33;100551.72;;;15.30;100.00
27705;BME280;15109;50.992;6.918;2022-10-23T08:37:56;100557.22;;;15.30;100.00
27705;BME280;15109;50.992;6.918;2022-10-23T08:41:30;100544.03;;;15.32;100.00
27705;BME280;15109;50.992;6.918;2022-10-23T08:45:25;100550.00;;;15.35;100.00
27705;BME280;15109;50.992;6.918;2022-10-23T08:49:16;100543.56;;;15.41;100.00
27705;BME280;15109;50.992;6.918;2022-10-23T08:53:08;100542.06;;;15.45;100.00
27705;BME280;15109;50.992;6.918;2022-10-23T08:56:37;100521.25;;;15.56;100.00
27705;BME280;15109;50.992;6.918;2022-10-23T09:00:10;100528.44;;;15.57;100.00
27705;BME280;15109;50.992;6.918;2022-10-23T09:03:32;100513.75;;;15.63;100.00
27705;BME280;15109;50.992;6.918;2022-10-23T09:10:46;100498.72;;;15.84;100.00
27705;BME280;15109;50.992;6.918;2022-10-23T09:14:26;100505.94;;;15.85;100.00
27705;BME280;15109;50.992;6.918;2022-10-23T09:18:00;100496.38;;;16.06;100.00
27705;BME280;15109;50.992;6.918;2022-10-23T09:21:28;100489.28;;;16.16;100.00
27705;BME280;15109;50.992;6.918;2022-10-23T09:24:49;100492.28;;;16.33;100.00
27705;BME280;15109;50.992;6.918;2022-10-23T09:28:24;100487.66;;;16.45;100.00
27705;BME280;15109;50.992;6.918;2022-10-23T09:31:54;100486.28;;;16.54;100.00
27705;BME280;15109;50.992;6.918;2022-10-23T09:35:21;100490.97;;;16.54;100.00
27705;BME280;15109;50.992;6.918;2022-10-23T09:42:27;100478.34;;;16.64;100.00
27705;BME280;15109;50.992;6.918;2022-10-23T09:45:59;100473.72;;;16.76;100.00
27705;BME280;15109;50.992;6.918;2022-10-23T09:49:23;100469.78;;;16.84;100.00
27705;BME280;15109;50.992;6.918;2022-10-23T09:52:44;100464.19;;;16.91;100.00
27705;BME280;15109;50.992;6.918;2022-10-23T09:56:22;100453.88;;;16.98;100.00
27705;BME280;15109;50.992;6.918;2022-10-23T09:59:49;100464.22;;;17.02;100.00
27705;BME280;15109;50.992;6.918;2022-10-23T10:03:22;100464.50;;;17.12;100.00
27705;BME280;15109;50.992;6.918;2022-10-23T10:06:59;100451.44;;;17.31;100.00
27705;BME280;15109;50.992;6.918;2022-10-23T10:10:22;100443.63;;;17.28;100.00
27705;BME280;15109;50.992;6.918;2022-10-23T10:17:37;100425.88;;;17.47;100.00
27705;BME280;15109;50.992;6.918;2022-10-23T10:21:20;100422.97;;;17.54;100.00
27705;BME280;15109;50.992;6.918;2022-10-23T10:32:37;100415.91;;;17.69;100.00
27705;BME280;15109;50.992;6.918;2022-10-23T10:47:38;100388.75;;;17.78;100.00
27705;BME280;15109;50.992;6.918;2022-10-23T10:51:24;100394.03;;;17.80;100.00
27705;BME280;15109;50.992;6.918;2022-10-23T10:58:37;100378.16;;;17.75;100.00
27705;BME280;15109;50.992;6.918;2022-10-23T11:05:45;100365.75;;;17.78;100.00
27705;BME280;15109;50.992;6.918;2022-10-23T11:09:21;100365.75;;;17.78;100.00
27705;BME280;15109;50.992;6.918;2022-10-23T11:12:45;100384.31;;;17.77;100.00
27705;BME280;15109;50.992;6.918;2022-10-23T11:16:17;100380.22;;;17.80;100.00
27705;BME280;15109;50.992;6.918;2022-10-23T11:19:45;100401.16;;;17.64;100.00
27705;BME280;15109;50.992;6.918;2022-10-23T11:23:28;100378.06;;;17.58;100.00
27705;BME280;15109;50.992;6.918;2022-10-23T11:30:57;100352.56;;;17.33;100.00
27705;BME280;15109;50.992;6.918;2022-10-23T11:38:34;100319.97;;;17.23;100.00
27705;BME280;15109;50.992;6.918;2022-10-23T11:41:59;100320.56;;;17.14;100.00
27705;BME280;15109;50.992;6.918;2022-10-23T11:45:35;100323.34;;;17.14;100.00
27705;BME280;15109;50.992;6.918;2022-10-23T11:48:57;100314.69;;;17.22;100.00
27705;BME280;15109;50.992;6.918;2022-10-23T11:52:23;100316.03;;;17.43;100.00
27705;BME280;15109;50.992;6.918;2022-10-23T11:59:28;100307.44;;;17.79;100.00
27705;BME280;15109;50.992;6.918;2022-10-23T12:02:52;100302.63;;;17.86;100.00
27705;BME280;15109;50.992;6.918;2022-10-23T12:06:24;100295.03;;;17.93;100.00
27705;BME280;15109;50.992;6.918;2022-10-23T12:16:56;100274.88;;;18.09;100.00
27705;BME280;15109;50.992;6.918;2022-10-23T12:38:09;100267.75;;;18.42;100.00
27705;BME280;15109;50.992;6.918;2022-10-23T12:41:33;100241.25;;;18.46;100.00
27705;BME280;15109;50.992;6.918;2022-10-23T12:48:20;100249.47;;;18.41;100.00
27705;BME280;15109;50.992;6.918;2022-10-23T12:51:42;100250.88;;;18.43;100.00
27705;BME280;15109;50.992;6.918;2022-10-23T12:55:13;100231.38;;;18.50;100.00
27705;BME280;15109;50.992;6.918;2022-10-23T12:58:35;100235.22;;;18.49;100.00
27705;BME280;15109;50.992;6.918;2022-10-23T13:01:59;100221.50;;;18.54;100.00
27705;BME280;15109;50.992;6.918;2022-10-23T13:05:21;100208.81;;;18.58;100.00
27705;BME280;15109;50.992;6.918;2022-10-23T13:08:44;100209.91;;;18.57;100.00
27705;BME280;15109;50.992;6.918;2022-10-23T13:12:32;100214.34;;;18.58;100.00
27705;BME280;15109;50.992;6.918;2022-10-23T13:15:54;100211.84;;;18.56;100.00
27705;BME280;15109;50.992;6.918;2022-10-23T13:19:22;100195.72;;;18.53;100.00
27705;BME280;15109;50.992;6.918;2022-10-23T13:22:46;100193.44;;;18.50;100.00
27705;BME280;15109;50.992;6.918;2022-10-23T13:26:31;100183.44;;;18.49;100.00
27705;BME280;15109;50.992;6.918;2022-10-23T13:29:52;100174.81;;;18.46;100.00
27705;BME280;15109;50.992;6.918;2022-10-23T13:33:22;100172.03;;;18.46;100.00
27705;BME280;15109;50.992;6.918;2022-10-23T13:37:01;100170.34;;;18.45;100.00
27705;BME280;15109;50.992;6.918;2022-10-23T13:40:26;100165.06;;;18.43;100.00
27705;BME280;15109;50.992;6.918;2022-10-23T13:43:48;100157.59;;;18.44;100.00
27705;BME280;15109;50.992;6.918;2022-10-23T13:47:11;100159.84;;;18.47;100.00
27705;BME280;15109;50.992;6.918;2022-10-23T13:50:32;100151.72;;;18.40;100.00
27705;BME280;15109;50.992;6.918;2022-10-23T13:53:55;100156.50;;;18.45;100.00
27705;BME280;15109;50.992;6.918;2022-10-23T13:57:16;100145.19;;;18.46;100.00
27705;BME280;15109;50.992;6.918;2022-10-23T14:00:38;100152.91;;;18.44;100.00
27705;BME280;15109;50.992;6.918;2022-10-23T14:04:03;100160.97;;;18.46;100.00
27705;BME280;15109;50.992;6.918;2022-10-23T14:07:28;100148.72;;;18.42;100.00
27705;BME280;15109;50.992;6.918;2022-10-23T14:10:52;100131.50;;;18.40;100.00
27705;BME280;15109;50.992;6.918;2022-10-23T14:14:13;100140.06;;;18.38;100.00
27705;BME280;15109;50.992;6.918;2022-10-23T14:17:37;100123.44;;;18.38;100.00
27705;BME280;15109;50.992;6.918;2022-10-23T14:21:00;100116.59;;;18.41;100.00
27705;BME280;15109;50.992;6.918;2022-10-23T14:24:21;100111.28;;;18.39;100.00
27705;BME280;15109;50.992;6.918;2022-10-23T14:27:42;100106.84;;;18.38;100.00
27705;BME280;15109;50.992;6.918;2022-10-23T14:31:09;100102.34;;;18.32;100.00
27705;BME280;15109;50.992;6.918;2022-10-23T14:34:30;100094.53;;;18.29;100.00
27705;BME280;15109;50.992;6.918;2022-10-23T14:37:54;100102.25;;;18.27;100.00
27705;BME280;15109;50.992;6.918;2022-10-23T14:41:16;100102.34;;;18.32;100.00
27705;BME280;15109;50.992;6.918;2022-10-23T14:44:38;100108.53;;;18.23;100.00
27705;BME280;15109;50.992;6.918;2022-10-23T14:47:59;100104.59;;;18.19;100.00
27705;BME280;15109;50.992;6.918;2022-10-23T14:51:25;100102.06;;;18.17;100.00
27705;BME280;15109;50.992;6.918;2022-10-23T14:54:47;100102.00;;;18.12;100.00
27705;BME280;15109;50.992;6.918;2022-10-23T14:58:10;100085.97;;;18.14;100.00
27705;BME280;15109;50.992;6.918;2022-10-23T15:01:33;100082.38;;;18.13;100.00
27705;BME280;15109;50.992;6.918;2022-10-23T15:04:54;100077.91;;;18.12;100.00
27705;BME280;15109;50.992;6.918;2022-10-23T15:08:15;100084.56;;;18.11;100.00
27705;BME280;15109;50.992;6.918;2022-10-23T15:11:36;100068.81;;;18.12;100.00
27705;BME280;15109;50.992;6.918;2022-10-23T15:14:57;100064.91;;;18.13;100.00
27705;BME280;15109;50.992;6.918;2022-10-23T15:18:18;100096.72;;;18.10;100.00
27705;BME280;15109;50.992;6.918;2022-10-23T15:21:41;100122.13;;;18.07;100.00
27705;BME280;15109;50.992;6.918;2022-10-23T15:25:03;100106.28;;;18.03;100.00
27705;BME280;15109;50.992;6.918;2022-10-23T15:28:25;100131.94;;;17.98;100.00
27705;BME280;15109;50.992;6.918;2022-10-23T15:31:51;100141.53;;;17.96;100.00
27705;BME280;15109;50.992;6.918;2022-10-23T15:35:13;100125.13;;;17.89;100.00
27705;BME280;15109;50.992;6.918;2022-10-23T15:38:34;100120.31;;;17.85;100.00
27705;BME280;15109;50.992;6.918;2022-10-23T15:41:55;100118.06;;;17.82;100.00
27705;BME280;15109;50.992;6.918;2022-10-23T15:45:16;100102.28;;;17.82;100.00
27705;BME280;15109;50.992;6.918;2022-10-23T15:48:37;100101.94;;;17.79;100.00
27705;BME280;15109;50.992;6.918;2022-10-23T15:51:59;100110.66;;;17.71;100.00
27705;BME280;15109;50.992;6.918;2022-10-23T15:55:20;100112.47;;;17.65;100.00
27705;BME280;15109;50.992;6.918;2022-10-23T15:58:41;100106.94;;;17.65;100.00
27705;BME280;15109;50.992;6.918;2022-10-23T16:02:02;100104.91;;;17.60;100.00
27705;BME280;15109;50.992;6.918;2022-10-23T16:05:23;100102.91;;;17.56;100.00
27705;BME280;15109;50.992;6.918;2022-10-23T16:08:44;100108.31;;;17.51;100.00
27705;BME280;15109;50.992;6.918;2022-10-23T16:12:06;100120.69;;;17.48;100.00
27705;BME280;15109;50.992;6.918;2022-10-23T16:15:27;100118.09;;;17.42;100.00
27705;BME280;15109;50.992;6.918;2022-10-23T16:18:48;100108.63;;;17.38;100.00
27705;BME280;15109;50.992;6.918;2022-10-23T16:22:09;100105.13;;;17.31;100.00
27705;BME280;15109;50.992;6.918;2022-10-23T16:25:30;100112.00;;;17.28;100.00
27705;BME280;15109;50.992;6.918;2022-10-23T16:28:55;100124.75;;;17.17;100.00
27705;BME280;15109;50.992;6.918;2022-10-23T16:32:17;100152.03;;;17.14;100.00
27705;BME280;15109;50.992;6.918;2022-10-23T16:35:38;100164.44;;;17.11;100.00
27705;BME280;15109;50.992;6.918;2022-10-23T16:39:09;100197.47;;;17.06;100.00
27705;BME280;15109;50.992;6.918;2022-10-23T16:42:49;100219.44;;;17.01;100.00
27705;BME280;15109;50.992;6.918;2022-10-23T16:46:21;100240.69;;;17.01;100.00
27705;BME280;15109;50.992;6.918;2022-10-23T16:49:42;100246.56;;;17.04;100.00
27705;BME280;15109;50.992;6.918;2022-10-23T16:53:03;100226.75;;;16.96;100.00
27705;BME280;15109;50.992;6.918;2022-10-23T16:56:27;100133.69;;;16.96;100.00
27705;BME280;15109;50.992;6.918;2022-10-23T16:59:51;100050.88;;;16.85;100.00
27705;BME280;15109;50.992;6.918;2022-10-23T17:03:12;100125.34;;;16.68;100.00
27705;BME280;15109;50.992;6.918;2022-10-23T17:06:33;100117.53;;;16.65;100.00
27705;BME280;15109;50.992;6.918;2022-10-23T17:09:54;100101.69;;;16.60;100.00
27705;BME280;15109;50.992;6.918;2022-10-23T17:13:15;100072.25;;;16.54;100.00
27705;BME280;15109;50.992;6.918;2022-10-23T17:16:48;100085.09;;;16.49;100.00
27705;BME280;15109;50.992;6.918;2022-10-23T17:20:10;100093.03;;;16.45;100.00
27705;BME280;15109;50.992;6.918;2022-10-23T17:23:31;100094.47;;;16.48;100.00
27705;BME280;15109;50.992;6.918;2022-10-23T17:26:52;100102.38;;;16.44;100.00
27705;BME280;15109;50.992;6.918;2022-10-23T17:30:14;100114.03;;;16.46;100.00
27705;BME280;15109;50.992;6.918;2022-10-23T17:33:35;100116.16;;;16.44;100.00
27705;BME280;15109;50.992;6.918;2022-10-23T17:36:56;100110.28;;;16.41;100.00
27705;BME280;15109;50.992;6.918;2022-10-23T17:40:17;100126.41;;;16.44;100.00
27705;BME280;15109;50.992;6.918;2022-10-23T17:43:38;100119.31;;;16.48;100.00
27705;BME280;15109;50.992;6.918;2022-10-23T17:46:59;100097.47;;;16.46;100.00
27705;BME280;15109;50.992;6.918;2022-10-23T17:50:20;100121.59;;;16.39;100.00
27705;BME280;15109;50.992;6.918;2022-10-23T17:53:43;100093.38;;;16.37;100.00
27705;BME280;15109;50.992;6.918;2022-10-23T17:57:05;100105.75;;;16.46;100.00
27705;BME280;15109;50.992;6.918;2022-10-23T18:00:26;100109.09;;;16.48;100.00
27705;BME280;15109;50.992;6.918;2022-10-23T18:03:47;100102.38;;;16.44;100.00
27705;BME280;15109;50.992;6.918;2022-10-23T18:07:08;100097.47;;;16.46;100.00
27705;BME280;15109;50.992;6.918;2022-10-23T18:10:29;100087.75;;;16.44;100.00
27705;BME280;15109;50.992;6.918;2022-10-23T18:13:51;100077.53;;;16.44;100.00
27705;BME280;15109;50.992;6.918;2022-10-23T18:17:12;100087.75;;;16.44;100.00
27705;BME280;15109;50.992;6.918;2022-10-23T18:20:38;100081.13;;;16.45;100.00
27705;BME280;15109;50.992;6.918;2022-10-23T18:24:00;100074.53;;;16.46;100.00
27705;BME280;15109;50.992;6.918;2022-10-23T18:27:21;100065.78;;;16.37;100.00
27705;BME280;15109;50.992;6.918;2022-10-23T18:30:42;100059.91;;;16.33;100.00
27705;BME280;15109;50.992;6.918;2022-10-23T18:34:07;100064.25;;;16.29;100.00
27705;BME280;15109;50.992;6.918;2022-10-23T18:37:28;100056.44;;;16.26;100.00
27705;BME280;15109;50.992;6.918;2022-10-23T18:40:53;100057.75;;;16.24;100.00
27705;BME280;15109;50.992;6.918;2022-10-23T18:44:16;100063.41;;;16.17;100.00
27705;BME280;15109;50.992;6.918;2022-10-23T18:47:38;100056.78;;;16.18;100.00
27705;BME280;15109;50.992;6.918;2022-10-23T18:50:59;100071.06;;;16.15;100.00
27705;BME280;15109;50.992;6.918;2022-10-23T18:54:20;100067.34;;;16.10;100.00
27705;BME280;15109;50.992;6.918;2022-10-23T18:57:41;100070.72;;;16.12;100.00
27705;BME280;15109;50.992;6.918;2022-10-23T19:01:03;100070.34;;;16.20;100.00
27705;BME280;15109;50.992;6.918;2022-10-23T19:04:24;100071.31;;;16.25;100.00
27705;BME280;15109;50.992;6.918;2022-10-23T19:07:46;100065.53;;;16.27;100.00
27705;BME280;15109;50.992;6.918;2022-10-23T19:11:09;100061.13;;;16.26;100.00
27705;BME280;15109;50.992;6.918;2022-10-23T19:14:31;100065.94;;;16.30;100.00
27705;BME280;15109;50.992;6.918;2022-10-23T19:17:52;100055.47;;;16.32;100.00
27705;BME280;15109;50.992;6.918;2022-10-23T19:21:13;100044.44;;;16.32;100.00
27705;BME280;15109;50.992;6.918;2022-10-23T19:24:43;100036.38;;;16.31;100.00